logo
Rechercher aéroport 
image banner adimage banner adimage banner ad
image banner ad

10CL - Centerport

Situé à Costa Mesa, United States

ICAO - 10CL, IATA -

Données fournies par Airmate  

Information générale

Coordonnées: N33°40'18" W117°52'29"
Élévation : 83 feet MSL.
 
Voir autres Aéroports à California

Données opérationnelles

Special qualification required
Heure actuelle UTC:
Heure actuelle locale:
METAR: KSNA 011753Z 00000KT 10SM BKN025 22/14 A2989 RMK AO2 SLP121 T02220139 10222 20200 50005
TAF: KSNA 011737Z 0118/0218 VRB04KT P6SM BKN025 FM011900 21009KT P6SM SCT025 FM020330 VRB04KT P6SM BKN022
Voir NOTAMs / SUP AIP / TFR affectant cet aéroport [VIEW]
Fréquences de communication: [VIEW]

Pistes:

Coordonnées de l'aéroport

Adresse: Costa Mesa United States

Vue satellite de 10CL